Main page
METAR-TAF:

METAR-TAF

Airports :

Shanghai Pudong International Airport

Shanghai-Pudong, China

latitude: 31-07N, longitude: 121-46E, elevation: 4 m

Current weather observation

The report was made 23 minutes ago, at 05:00 UTC
Wind 16 kt from the North with gusts up to 25 kt
Temperature 11°C
Humidity 43%
Pressure 1034 hPa
Visibility 10 km or more
Scattered clouds at a height of 4000 ft

METAR: ZSPD 060500Z 01008G13MPS 9999 SCT040 11/M01 Q1034 NOSIG

Time: 13:23 (05:23 UTC)

Forecast

The report was made 8 hours and 11 minutes ago, at 21:12 UTC
Forecast valid from 06 at 00 UTC to 06 at 24 UTC
Wind 16 kt from the North/Northeast
Visibility: 6000 m
Broken clouds at a height of 1600 ft

TAF: ZSPD 052112Z 0600/0624 02008MPS 6000 BKN016 TX12/0606Z TN05/0621Z

Weather observations and forecasts of more than 4000 airports (METAR and TAF reports).

The available stations are represented by yellow and red dots on the map.

Hover mouse over dot to see the name of the station.

Then click to see weather observations and forecasts.

To change the map : click on the green buttons with a black cross to zoom in, on the green button with a dash to zoom out, or on the green arrows for adjacent maps.


METAR-TAF: